Pagrindinis puslapis
METAR-TAF:

METAR-TAF

Oro uostai :

Sibu, Malaizija

platuma: 02-20N, ilguma: 111-50E, Aukštis: 8 m

Dabartinis oras

Ataskaita buvo paskelbta 25 minutes, ne 08:00 UTC
Vėjas 9 kt iš Šiaurės/Šiaurės Vakarų, svyruoja nuo Vakarų/Šiaurės Vakarų ir Šiaurės/Šiaurės Rytų
Temperatūra 30°C
Drėgmė 79%
Slėgis 1008 hPa
Matomumas 10 km arba daugiau
Mažai debesys ne aukštis 1500 ft, Liūtiniai kamuoliniai debesys.
Išsisklaidę debesys ne aukštis 1800 ft
Su prošvaistėmis ne aukštis 15000 ft

METAR: WBGS 230800Z 34009KT 290V020 9999 FEW015CB SCT018 BKN150 30/26 Q1008

Laikas: 16:25 (08:25 UTC)

Prognozė

Ataskaita buvo paskelbta 3 valandos ir 25 minutes, ne 05:00 UTC
Prognozė galioja nuo 23 metu 06 UTC su 24 metu 06 UTC
Vėjas 3 kt nuo kintamojo kryptimis
Matomumas 10 km arba daugiau
Išsisklaidę debesys ne aukštis 1800 ft

TAF: WBGS 230500Z 2306/2406 VRB03KT 9999 SCT018

Orai ataskaitas ir orų prognozės (METAR, TAF).

turimą stotys yra geltonos ir raudonos taškus žemėlapyje.

Perkelti pele per norėdami pamatyti stoties vardą.

Tada spustelėkite, norėdami matyti oro stebėjimo ir prognozės.

Norėdami pakeisti žemėlapį: spustelėkite ant žalios mygtukų su juodo kryžiaus žemyn,; žalią mygtuką su brūkšneliu, jei norite nutolinti; arba žalių rodyklių gretimoms žemėlapius.


METAR-TAF: